Japan Airlines Virtual Airport Information Service

Busan Gimhae International Airport

ICAO: RKPK Country: South Korea
Latitude: 35.1795 Longitude: 128.938
Latest Arrival : KAL798 (RJFF-RKPK) Latest Departure : KAL1406 (RKPK-RKSI)


WX CaptureLIVE
Data provided by noaa.gov | Fetched at 17:36:23

METAR : RKPK 041700Z 36002KT CAVOK 02/M02 Q1029

TAF : RKPK 041100Z 0412/0518 33006KT 9999 SCT030 TN01/0421Z TX15/0506Z


Runway Data for RKPK
Data provided by openaviationdata.com

Runway ID Mag Var Hdg Length Elevation Surface ILS Freq ILS Id ILS Slope
18L -7 180° 9013 ft 13 ft Asphalt -- -- --
18R -7 180° 10516 ft 13 ft Concrete -- -- --
36L -7 10516 ft 13 ft Concrete 108.5 IKMA 3
36R -7 9013 ft 13 ft Asphalt 109.5 IKHE 3

Busan Gimhae International Airport, South Korea
Use only for reference purposes



Not for navigational purposes.